Time;durP1;ratioP1;P1;durP2;ratioP2;P2;SDS_P1;SDS_P2;PMS_P1;PMS_P2;Temp;Humidity;BMP_temperature;BMP_pressure;BME280_temperature;BME280_humidity;BME280_pressure;Samples;Min_cycle;Max_cycle;Signal;HPM_P1;HPM_P2
2022/01/09 00:00:34;;;;;;;;;1.25;1.25;14.20;99.90;;;;;;5013841;28;10830;-51
2022/01/09 00:03:05;;;;;;;;;1.00;1.00;14.20;99.90;;;;;;5017089;28;10829;-53
2022/01/09 00:05:36;;;;;;;;;2.00;2.00;14.10;99.90;;;;;;5015451;28;10830;-52
2022/01/09 00:08:07;;;;;;;;;1.00;1.00;14.10;99.90;;;;;;5002173;28;11170;-51
2022/01/09 00:10:45;;;;;;;;;1.00;1.00;14.10;99.90;;;;;;5010994;28;10829;-52
2022/01/09 00:13:16;;;;;;;;;1.50;1.50;14.10;99.90;;;;;;4999276;28;10929;-53
2022/01/09 00:15:47;;;;;;;;;2.00;2.00;14.10;99.90;;;;;;4997074;28;12898;-54
2022/01/09 00:18:18;;;;;;;;;1.50;1.50;14.10;99.90;;;;;;4998702;28;10947;-54
2022/01/09 00:20:49;;;;;;;;;2.25;2.25;14.10;99.90;;;;;;5011982;28;10855;-52
2022/01/09 00:23:19;;;;;;;;;1.00;1.00;14.10;99.90;;;;;;4999818;28;10914;-54
2022/01/09 00:25:50;;;;;;;;;0.00;0.00;14.10;99.90;;;;;;5014967;28;11080;-52
2022/01/09 00:28:23;;;;;;;;;1.50;1.50;14.10;99.90;;;;;;5015452;28;11123;-53
2022/01/09 00:30:55;;;;;;;;;1.00;1.00;14.10;99.90;;;;;;4999757;28;11116;-51
2022/01/09 00:33:25;;;;;;;;;1.75;1.75;14.00;99.90;;;;;;5011035;28;11087;-52
2022/01/09 00:35:56;;;;;;;;;3.25;3.25;14.00;99.90;;;;;;5012700;28;11042;-53
2022/01/09 00:38:31;;;;;;;;;8.00;8.00;14.00;99.90;;;;;;5013852;28;11042;-53
2022/01/09 00:41:02;;;;;;;;;4.00;4.00;14.10;99.90;;;;;;5013249;28;11500;-52
2022/01/09 00:43:33;;;;;;;;;3.00;3.00;14.00;99.90;;;;;;5013604;28;11134;-51
2022/01/09 00:46:03;;;;;;;;;3.50;3.50;14.00;99.90;;;;;;4999499;28;11088;-53
2022/01/09 00:48:34;;;;;;;;;1.75;1.75;14.00;99.90;;;;;;5014616;28;11669;-51
2022/01/09 00:51:06;;;;;;;;;1.00;1.00;14.00;99.90;;;;;;4998893;28;10978;-53
2022/01/09 00:53:37;;;;;;;;;2.00;2.00;14.00;99.90;;;;;;5012907;28;11082;-51
2022/01/09 00:56:08;;;;;;;;;1.00;1.00;14.00;99.90;;;;;;5015578;28;11073;-53
2022/01/09 00:58:45;;;;;;;;;1.25;1.25;13.90;99.90;;;;;;5011283;28;11819;-53
2022/01/09 01:01:15;;;;;;;;;1.50;1.50;13.90;99.90;;;;;;5012343;28;10946;-51
2022/01/09 01:03:48;;;;;;;;;1.00;1.00;13.90;99.90;;;;;;4993683;28;12073;-52
2022/01/09 01:06:19;;;;;;;;;1.00;1.00;13.90;99.90;;;;;;5009864;28;11741;-53
2022/01/09 01:08:50;;;;;;;;;3.00;3.00;13.90;99.90;;;;;;4994525;28;10989;-51
2022/01/09 01:11:24;;;;;;;;;2.25;2.25;13.90;99.90;;;;;;5010216;28;11204;-51
2022/01/09 01:13:55;;;;;;;;;2.00;2.00;13.90;99.90;;;;;;5016457;28;11447;-53
2022/01/09 01:16:26;;;;;;;;;3.50;3.50;13.90;99.90;;;;;;5017039;28;13057;-50
2022/01/09 01:19:00;;;;;;;;;4.00;4.00;13.80;99.90;;;;;;5018112;28;11418;-52
2022/01/09 01:21:32;;;;;;;;;5.50;4.00;13.80;99.90;;;;;;4998886;28;11228;-53
2022/01/09 01:24:03;;;;;;;;;2.50;2.50;13.80;99.90;;;;;;5016256;28;11441;-54
2022/01/09 01:26:34;;;;;;;;;5.00;5.00;13.80;99.90;;;;;;5010069;28;11488;-53
2022/01/09 01:29:05;;;;;;;;;5.50;5.50;13.70;99.90;;;;;;5016884;28;11567;-52
2022/01/09 01:31:36;;;;;;;;;4.50;4.50;13.70;99.90;;;;;;5015742;28;12196;-52
2022/01/09 01:34:07;;;;;;;;;4.25;4.25;13.70;99.90;;;;;;5011711;28;11487;-52
2022/01/09 01:36:39;;;;;;;;;3.50;3.50;13.70;99.90;;;;;;5010917;28;12720;-54
2022/01/09 01:39:16;;;;;;;;;4.25;4.25;13.70;99.90;;;;;;5017268;28;11232;-53
2022/01/09 01:41:46;;;;;;;;;4.50;4.50;13.70;99.90;;;;;;4994572;28;11421;-52
2022/01/09 01:44:22;;;;;;;;;5.25;5.25;13.70;99.90;;;;;;4998703;28;12198;-54
2022/01/09 01:46:53;;;;;;;;;6.25;6.25;13.60;99.90;;;;;;5015181;28;11424;-51
2022/01/09 01:49:23;;;;;;;;;5.00;5.00;13.60;99.90;;;;;;4999582;28;11645;-50
2022/01/09 01:51:54;;;;;;;;;6.00;6.00;13.60;99.90;;;;;;5017154;28;11443;-51
2022/01/09 01:54:27;;;;;;;;;7.50;7.50;13.60;99.90;;;;;;4997081;28;11424;-53
2022/01/09 01:56:58;;;;;;;;;6.00;6.00;13.60;99.90;;;;;;5011813;28;11438;-54
2022/01/09 01:59:28;;;;;;;;;9.00;9.00;13.50;99.90;;;;;;5000825;28;11395;-52
2022/01/09 02:01:59;;;;;;;;;6.00;6.00;13.50;99.90;;;;;;4993164;28;11707;-53
2022/01/09 02:04:29;;;;;;;;;6.25;6.25;13.50;99.90;;;;;;5013929;28;11459;-50
2022/01/09 02:07:02;;;;;;;;;6.25;6.25;13.40;99.90;;;;;;4997956;28;11430;-52
2022/01/09 02:09:34;;;;;;;;;4.75;4.75;13.40;99.90;;;;;;5010507;28;11414;-51
2022/01/09 02:12:06;;;;;;;;;6.50;6.50;13.30;99.90;;;;;;4995429;28;11599;-50
2022/01/09 02:14:38;;;;;;;;;6.50;6.50;13.30;99.90;;;;;;4999151;28;11489;-52
2022/01/09 02:17:18;;;;;;;;;3.00;3.00;13.30;99.90;;;;;;4983171;28;11510;-53
2022/01/09 02:19:56;;;;;;;;;6.00;6.00;13.30;99.90;;;;;;5001986;28;11631;-54
2022/01/09 02:22:31;;;;;;;;;5.00;5.00;13.30;99.90;;;;;;5001483;28;11431;-53
2022/01/09 02:25:02;;;;;;;;;7.00;7.00;13.30;99.90;;;;;;4999171;28;11578;-51
2022/01/09 02:27:36;;;;;;;;;5.00;5.00;13.30;99.90;;;;;;4999466;28;11475;-53
2022/01/09 02:30:06;;;;;;;;;6.00;6.00;13.20;99.90;;;;;;4999484;28;11648;-52
2022/01/09 02:32:38;;;;;;;;;7.50;7.50;13.20;99.90;;;;;;4992916;28;11517;-53
2022/01/09 02:35:10;;;;;;;;;6.00;6.00;13.20;99.90;;;;;;4999117;28;11578;-54
2022/01/09 02:37:41;;;;;;;;;5.75;5.75;13.10;99.90;;;;;;4996166;28;11510;-52
2022/01/09 02:40:15;;;;;;;;;6.00;6.00;13.10;99.90;;;;;;4995176;28;11462;-53
2022/01/09 02:42:47;;;;;;;;;4.00;4.00;13.10;99.90;;;;;;4995812;28;11483;-51
2022/01/09 02:45:21;;;;;;;;;6.50;6.50;13.00;99.90;;;;;;4998910;28;11464;-54
2022/01/09 02:47:53;;;;;;;;;8.00;8.00;13.10;99.90;;;;;;4997804;28;12292;-53
2022/01/09 02:53:02;;;;;;;;;7.00;7.00;13.00;99.90;;;;;;4998533;28;11549;-54
2022/01/09 02:55:32;;;;;;;;;7.50;7.50;13.00;99.90;;;;;;4993576;28;11512;-52
2022/01/09 02:58:02;;;;;;;;;8.00;8.00;13.00;99.90;;;;;;4995268;28;11542;-51
2022/01/09 03:00:37;;;;;;;;;7.50;7.50;12.90;99.90;;;;;;4998761;28;12386;-53
2022/01/09 03:03:09;;;;;;;;;8.25;8.25;12.90;99.90;;;;;;4995312;28;11571;-52
2022/01/09 03:05:43;;;;;;;;;8.75;8.75;12.90;99.90;;;;;;4996218;28;11594;-53
2022/01/09 03:08:15;;;;;;;;;8.00;8.00;12.80;99.90;;;;;;4994658;28;11537;-53
2022/01/09 03:10:45;;;;;;;;;11.00;9.00;12.80;99.90;;;;;;4997259;28;11524;-54
2022/01/09 03:13:18;;;;;;;;;11.50;9.75;12.80;99.90;;;;;;4996708;28;11647;-54
2022/01/09 03:15:49;;;;;;;;;11.00;11.00;12.70;99.90;;;;;;4997887;28;11584;-54
2022/01/09 03:18:21;;;;;;;;;17.75;17.75;12.70;99.90;;;;;;4994428;28;12351;-55
2022/01/09 03:20:52;;;;;;;;;16.25;16.00;12.70;99.90;;;;;;4992774;28;11711;-48
2022/01/09 03:23:23;;;;;;;;;14.25;14.25;12.60;99.90;;;;;;5012745;28;11706;-53
2022/01/09 03:25:53;;;;;;;;;17.50;17.50;12.60;99.90;;;;;;4997956;28;11594;-53
2022/01/09 03:28:23;;;;;;;;;15.00;15.00;12.60;99.90;;;;;;4996170;28;11595;-53
2022/01/09 03:30:53;;;;;;;;;13.00;13.00;12.60;99.90;;;;;;4978392;28;11665;-51
2022/01/09 03:33:23;;;;;;;;;9.00;9.00;12.60;99.90;;;;;;4997443;28;11699;-51
2022/01/09 03:35:54;;;;;;;;;12.25;12.25;12.60;99.90;;;;;;4993438;28;11534;-52
2022/01/09 03:38:25;;;;;;;;;1.00;1.00;12.50;99.90;;;;;;4997623;28;11714;-52
2022/01/09 03:40:59;;;;;;;;;12.50;12.50;12.50;99.90;;;;;;4993994;28;11517;-53
2022/01/09 03:43:30;;;;;;;;;12.00;11.00;12.50;99.90;;;;;;4996674;28;11596;-53
2022/01/09 03:46:00;;;;;;;;;12.25;12.25;12.50;99.90;;;;;;4976202;28;11540;-52
2022/01/09 03:48:32;;;;;;;;;13.25;13.25;12.40;99.90;;;;;;4997659;28;11608;-53
2022/01/09 03:51:04;;;;;;;;;13.25;13.25;12.40;99.90;;;;;;4998663;28;11532;-51
2022/01/09 03:53:34;;;;;;;;;11.00;11.00;12.40;99.90;;;;;;4996452;28;11594;-52
2022/01/09 03:56:08;;;;;;;;;13.25;13.25;12.40;99.90;;;;;;4998370;28;11574;-53
2022/01/09 03:58:41;;;;;;;;;14.75;14.75;12.30;99.90;;;;;;4993563;28;11570;-52
2022/01/09 04:01:15;;;;;;;;;10.00;10.00;12.20;99.90;;;;;;5001789;28;11831;-51
2022/01/09 04:03:45;;;;;;;;;17.25;14.75;12.20;99.90;;;;;;4991714;28;11561;-51
2022/01/09 04:06:17;;;;;;;;;16.50;16.50;12.20;99.90;;;;;;4996691;28;12515;-53
2022/01/09 04:08:48;;;;;;;;;19.50;19.50;12.20;99.90;;;;;;4997627;28;11581;-53
2022/01/09 04:11:35;;;;;;;;;17.75;17.75;12.20;99.90;;;;;;5000351;28;11692;-54
2022/01/09 04:14:06;;;;;;;;;22.75;22.75;12.20;99.90;;;;;;4994380;28;11520;-54
2022/01/09 04:16:37;;;;;;;;;27.00;25.75;12.20;99.90;;;;;;4996606;28;11677;-51
2022/01/09 04:19:12;;;;;;;;;21.50;18.75;12.10;99.90;;;;;;5013413;28;12308;-53
2022/01/09 04:21:43;;;;;;;;;18.50;18.50;12.10;99.90;;;;;;5002232;28;11535;-53
2022/01/09 04:24:14;;;;;;;;;22.75;22.00;12.00;99.90;;;;;;5015379;28;11565;-50
2022/01/09 04:26:50;;;;;;;;;19.75;18.00;12.00;99.90;;;;;;5011927;28;12173;-54
2022/01/09 04:29:21;;;;;;;;;13.75;13.00;12.00;99.90;;;;;;5000789;28;12335;-55
2022/01/09 04:31:52;;;;;;;;;19.75;19.75;11.90;99.90;;;;;;5016293;28;11975;-53
2022/01/09 04:34:23;;;;;;;;;12.75;12.75;11.90;99.90;;;;;;5013866;28;11585;-52
2022/01/09 04:36:58;;;;;;;;;16.75;16.75;11.90;99.90;;;;;;4996707;28;11634;-53
2022/01/09 04:39:30;;;;;;;;;17.50;17.50;11.90;99.90;;;;;;5015878;28;11533;-54
2022/01/09 04:42:00;;;;;;;;;17.25;17.25;11.80;99.90;;;;;;4997806;28;11534;-53
2022/01/09 04:44:30;;;;;;;;;17.50;17.50;11.80;99.90;;;;;;5012976;28;11530;-52
2022/01/09 04:47:06;;;;;;;;;13.00;13.00;11.80;99.90;;;;;;5014783;28;12352;-54
2022/01/09 04:49:40;;;;;;;;;17.25;17.25;11.70;99.90;;;;;;4999369;28;11659;-53
2022/01/09 04:52:18;;;;;;;;;18.50;18.50;11.70;99.90;;;;;;4997567;28;12271;-53
2022/01/09 04:54:52;;;;;;;;;20.25;18.00;11.70;99.90;;;;;;5014475;28;11525;-54
2022/01/09 04:57:22;;;;;;;;;13.50;13.50;11.80;99.90;;;;;;5011871;28;11635;-53
2022/01/09 04:59:54;;;;;;;;;17.00;17.00;11.80;99.90;;;;;;5015271;28;11551;-53
2022/01/09 05:02:25;;;;;;;;;11.75;11.75;11.70;99.90;;;;;;5010919;28;11717;-54
2022/01/09 05:04:57;;;;;;;;;17.00;17.00;11.70;99.90;;;;;;5016094;28;11502;-53
2022/01/09 05:07:27;;;;;;;;;20.25;17.75;11.70;99.90;;;;;;5014542;28;11514;-53
2022/01/09 05:09:58;;;;;;;;;14.00;14.00;11.60;99.90;;;;;;5000240;28;12331;-53
2022/01/09 05:12:29;;;;;;;;;13.00;13.00;11.60;99.90;;;;;;5012020;28;11546;-52
2022/01/09 05:15:00;;;;;;;;;16.00;16.00;11.60;99.90;;;;;;4999097;28;11542;-53
2022/01/09 05:17:30;;;;;;;;;9.00;9.00;11.50;99.90;;;;;;5012464;28;11763;-54
2022/01/09 05:20:04;;;;;;;;;18.00;18.00;11.60;99.90;;;;;;5015137;28;14347;-53
2022/01/09 05:22:34;;;;;;;;;15.00;15.00;11.50;99.90;;;;;;5012307;28;11531;-53
2022/01/09 05:25:07;;;;;;;;;15.75;15.75;11.50;99.90;;;;;;5013996;28;11538;-54
2022/01/09 05:27:37;;;;;;;;;15.75;15.75;11.40;99.90;;;;;;5014438;28;11512;-52
2022/01/09 05:30:13;;;;;;;;;16.25;16.25;11.40;99.90;;;;;;4998899;28;11571;-53
2022/01/09 05:32:44;;;;;;;;;18.00;18.00;11.40;99.90;;;;;;5014622;28;11566;-53
2022/01/09 05:35:15;;;;;;;;;18.00;18.00;11.40;99.90;;;;;;5012527;28;11521;-54
2022/01/09 05:37:46;;;;;;;;;15.25;15.25;11.30;99.90;;;;;;5016712;28;11660;-54
2022/01/09 05:40:17;;;;;;;;;20.50;20.50;11.30;99.90;;;;;;4996745;28;11537;-53
2022/01/09 05:42:48;;;;;;;;;21.25;19.75;11.30;99.90;;;;;;5013871;28;11542;-51
2022/01/09 05:45:19;;;;;;;;;22.00;22.00;11.30;99.90;;;;;;5014184;28;11547;-52
2022/01/09 05:47:51;;;;;;;;;19.25;19.25;11.30;99.90;;;;;;5018897;28;12323;-52
2022/01/09 05:50:23;;;;;;;;;19.50;19.50;11.30;99.90;;;;;;4984337;28;11543;-53
2022/01/09 05:52:55;;;;;;;;;19.50;19.50;11.30;99.90;;;;;;5016541;28;11613;-52
2022/01/09 05:55:26;;;;;;;;;17.00;17.00;11.20;99.90;;;;;;5003261;28;11552;-54
2022/01/09 05:57:57;;;;;;;;;14.50;14.50;11.30;99.90;;;;;;5012646;28;12341;-50
2022/01/09 06:00:29;;;;;;;;;24.25;24.25;11.30;99.90;;;;;;4986144;28;11568;-51
2022/01/09 06:02:59;;;;;;;;;22.75;22.00;11.20;99.90;;;;;;5022301;28;11518;-48
2022/01/09 06:05:30;;;;;;;;;22.00;21.25;11.20;99.90;;;;;;5015960;28;11546;-52
2022/01/09 06:08:03;;;;;;;;;17.25;17.25;11.20;99.90;;;;;;5015155;28;12381;-53
2022/01/09 06:10:34;;;;;;;;;21.50;20.00;11.20;99.90;;;;;;5016173;28;11527;-52
2022/01/09 06:13:07;;;;;;;;;22.00;22.00;11.10;99.90;;;;;;5015938;28;12299;-54
2022/01/09 06:15:38;;;;;;;;;20.00;20.00;11.10;99.90;;;;;;5012830;28;11496;-52
2022/01/09 06:18:17;;;;;;;;;25.25;25.25;11.10;99.90;;;;;;4998019;28;11679;-55
2022/01/09 06:20:49;;;;;;;;;21.50;21.50;11.10;99.90;;;;;;5015891;28;11729;-54
2022/01/09 06:23:20;;;;;;;;;31.25;31.25;11.10;99.90;;;;;;5014695;28;11632;-53
2022/01/09 06:25:52;;;;;;;;;31.25;31.25;11.10;99.90;;;;;;5015691;28;11584;-54
2022/01/09 06:28:21;;;;;;;;;31.50;30.50;11.00;99.90;;;;;;5013958;28;11543;-53
2022/01/09 06:30:53;;;;;;;;;29.50;29.50;10.90;99.90;;;;;;4999204;28;11714;-54
2022/01/09 06:33:24;;;;;;;;;23.00;23.00;10.90;99.90;;;;;;5013267;28;11561;-54
2022/01/09 06:35:56;;;;;;;;;21.00;21.00;10.90;99.90;;;;;;4982408;28;11545;-53
2022/01/09 06:38:27;;;;;;;;;21.00;21.00;10.90;99.90;;;;;;5015444;28;11701;-53
2022/01/09 06:40:58;;;;;;;;;22.00;22.00;10.90;99.90;;;;;;4998894;28;11708;-54
2022/01/09 06:43:29;;;;;;;;;30.25;28.75;10.90;99.90;;;;;;5019406;28;11747;-52
2022/01/09 06:46:00;;;;;;;;;21.25;21.25;10.90;99.90;;;;;;5015945;28;11622;-52
2022/01/09 06:48:31;;;;;;;;;23.25;23.25;10.80;99.90;;;;;;5019559;28;13882;-54
2022/01/09 06:51:02;;;;;;;;;23.25;23.25;10.80;99.90;;;;;;5017265;28;11585;-53
2022/01/09 06:53:33;;;;;;;;;29.75;29.50;10.80;99.90;;;;;;5019666;28;11577;-52
2022/01/09 06:56:05;;;;;;;;;32.25;31.00;10.80;99.90;;;;;;5015303;28;11697;-53
2022/01/09 06:58:37;;;;;;;;;30.00;30.00;10.80;99.90;;;;;;5017363;28;11563;-51
2022/01/09 07:01:08;;;;;;;;;31.75;31.75;10.80;99.90;;;;;;4986620;28;12189;-52
2022/01/09 07:03:42;;;;;;;;;32.25;29.50;10.80;99.90;;;;;;5018171;28;11574;-53
2022/01/09 07:06:13;;;;;;;;;30.75;30.75;10.80;99.90;;;;;;4998387;28;11569;-54
2022/01/09 07:08:44;;;;;;;;;28.25;27.50;10.80;99.90;;;;;;4992049;28;11587;-51
2022/01/09 07:11:17;;;;;;;;;25.00;23.00;10.70;99.90;;;;;;4883679;28;3494481;-55
2022/01/09 07:13:48;;;;;;;;;27.00;27.00;10.70;99.90;;;;;;5013936;28;8839;-53
2022/01/09 07:16:20;;;;;;;;;28.50;28.50;10.60;99.90;;;;;;5015106;28;11560;-53
2022/01/09 07:18:51;;;;;;;;;26.25;26.25;10.60;99.90;;;;;;5016969;28;11591;-54
2022/01/09 07:21:21;;;;;;;;;27.00;27.00;10.60;99.90;;;;;;5000949;28;11568;-53
2022/01/09 07:23:51;;;;;;;;;27.75;27.75;10.60;99.90;;;;;;5000651;28;11643;-52
2022/01/09 07:26:21;;;;;;;;;29.75;28.75;10.60;99.90;;;;;;5005407;28;11570;-53
2022/01/09 07:28:53;;;;;;;;;29.25;29.25;10.60;99.90;;;;;;4996432;28;11603;-54
2022/01/09 07:31:24;;;;;;;;;30.75;30.00;10.60;99.90;;;;;;5016243;28;11596;-53
2022/01/09 07:33:58;;;;;;;;;29.25;29.25;10.60;99.90;;;;;;5014790;28;11514;-53
2022/01/09 07:36:29;;;;;;;;;32.00;32.00;10.50;99.90;;;;;;5015283;28;11578;-52
2022/01/09 07:39:01;;;;;;;;;23.25;22.50;10.50;99.90;;;;;;4999234;28;11535;-54
2022/01/09 07:41:31;;;;;;;;;27.00;26.75;10.50;99.90;;;;;;4998794;28;11561;-54
2022/01/09 07:44:02;;;;;;;;;25.50;25.25;10.50;99.90;;;;;;5018083;28;11591;-52
2022/01/09 07:46:33;;;;;;;;;30.00;27.25;10.50;99.90;;;;;;5016194;28;11538;-54
2022/01/09 07:49:03;;;;;;;;;28.00;26.25;10.40;99.90;;;;;;5015882;28;11582;-53
2022/01/09 07:51:33;;;;;;;;;31.00;29.00;10.40;99.90;;;;;;5012206;28;12310;-53
2022/01/09 07:54:20;;;;;;;;;25.00;24.50;10.30;99.90;;;;;;5011371;28;11598;-52
2022/01/09 07:56:51;;;;;;;;;31.25;29.25;10.40;99.90;;;;;;4997989;28;11531;-54
2022/01/09 07:59:21;;;;;;;;;26.00;26.00;10.30;99.90;;;;;;5013375;28;12526;-54
2022/01/09 08:01:52;;;;;;;;;23.00;23.00;10.30;99.90;;;;;;4999339;28;11570;-53
2022/01/09 08:04:23;;;;;;;;;18.25;18.25;10.30;99.90;;;;;;4981860;28;11785;-53
2022/01/09 08:06:53;;;;;;;;;20.00;20.00;10.30;99.90;;;;;;4997283;28;11563;-54
2022/01/09 08:09:23;;;;;;;;;20.00;19.50;10.30;99.90;;;;;;5013874;28;11568;-56
2022/01/09 08:11:55;;;;;;;;;23.75;23.75;10.30;99.90;;;;;;5011987;28;11554;-53
2022/01/09 08:14:26;;;;;;;;;20.25;20.25;10.30;99.90;;;;;;4982305;28;11540;-53
2022/01/09 08:16:59;;;;;;;;;21.25;21.25;10.30;99.90;;;;;;5013173;28;11605;-53
2022/01/09 08:19:31;;;;;;;;;21.50;21.50;10.30;99.90;;;;;;5011588;28;11555;-56
2022/01/09 08:22:04;;;;;;;;;19.25;19.25;10.30;99.90;;;;;;5008591;28;12676;-54
2022/01/09 08:24:38;;;;;;;;;20.00;20.00;10.20;99.90;;;;;;5014721;28;12442;-54
2022/01/09 08:27:13;;;;;;;;;18.00;18.00;10.30;99.90;;;;;;5010748;28;12258;-52
2022/01/09 08:29:43;;;;;;;;;10.00;10.00;10.20;99.90;;;;;;5014063;28;11584;-54
2022/01/09 08:32:15;;;;;;;;;18.00;18.00;10.30;99.90;;;;;;4991952;28;12685;-53
2022/01/09 08:34:46;;;;;;;;;18.75;18.75;10.30;99.90;;;;;;4995928;28;11631;-54
2022/01/09 08:37:16;;;;;;;;;15.50;13.50;10.20;99.90;;;;;;5013207;28;11577;-54
2022/01/09 08:39:47;;;;;;;;;13.50;13.50;10.30;99.90;;;;;;5012225;28;11545;-53
2022/01/09 08:42:18;;;;;;;;;18.50;18.50;10.30;99.90;;;;;;5001532;28;11571;-53
2022/01/09 08:44:50;;;;;;;;;13.50;13.50;10.30;99.90;;;;;;5010538;28;11753;-55
2022/01/09 08:47:25;;;;;;;;;12.50;11.50;10.20;99.90;;;;;;4995265;28;11586;-54
2022/01/09 08:49:57;;;;;;;;;16.50;16.50;10.20;99.90;;;;;;4993188;28;12342;-54
2022/01/09 08:52:28;;;;;;;;;14.00;14.00;10.20;99.90;;;;;;5015881;28;11483;-54
2022/01/09 08:54:59;;;;;;;;;16.25;16.25;10.20;99.90;;;;;;5013514;28;11545;-53
2022/01/09 08:57:30;;;;;;;;;13.00;13.00;10.20;99.90;;;;;;5012960;28;11551;-54
2022/01/09 09:00:01;;;;;;;;;15.50;15.50;10.20;99.90;;;;;;5001390;28;11599;-50
2022/01/09 09:02:32;;;;;;;;;17.25;17.25;10.20;99.90;;;;;;5014303;28;11537;-53
2022/01/09 09:05:02;;;;;;;;;16.75;16.75;10.20;99.90;;;;;;5009549;28;12308;-54
2022/01/09 09:07:32;;;;;;;;;13.50;13.50;10.20;99.90;;;;;;5013805;28;11520;-52
2022/01/09 09:10:04;;;;;;;;;15.25;15.25;10.10;99.90;;;;;;4997869;28;11541;-52
2022/01/09 09:12:36;;;;;;;;;15.75;13.75;10.20;99.90;;;;;;5010275;28;11569;-53
2022/01/09 09:15:08;;;;;;;;;7.75;7.75;10.10;99.90;;;;;;5012826;28;11604;-53
2022/01/09 09:17:40;;;;;;;;;13.25;13.25;10.10;99.90;;;;;;5014599;28;11543;-53
2022/01/09 09:20:12;;;;;;;;;12.50;12.50;10.20;99.90;;;;;;4996386;28;11555;-51
2022/01/09 09:22:43;;;;;;;;;11.75;11.75;10.20;99.90;;;;;;5013772;28;11575;-55
2022/01/09 09:25:14;;;;;;;;;11.75;11.75;10.20;99.90;;;;;;4996027;28;11571;-56
2022/01/09 09:27:46;;;;;;;;;12.00;12.00;10.20;99.90;;;;;;4997848;28;11503;-52
2022/01/09 09:30:17;;;;;;;;;8.50;8.50;10.20;99.90;;;;;;5012053;28;11517;-51
2022/01/09 09:32:48;;;;;;;;;11.00;11.00;10.20;99.90;;;;;;4997530;28;11527;-52
2022/01/09 09:35:18;;;;;;;;;7.00;7.00;10.20;99.90;;;;;;5010879;28;11596;-50
2022/01/09 09:37:51;;;;;;;;;12.00;12.00;10.20;99.90;;;;;;5015480;28;11508;-54
2022/01/09 09:40:22;;;;;;;;;10.50;10.50;10.20;99.90;;;;;;5013072;28;11564;-55
2022/01/09 09:42:53;;;;;;;;;12.50;12.50;10.20;99.90;;;;;;5015317;28;12226;-54
2022/01/09 09:45:25;;;;;;;;;11.75;11.75;10.20;99.90;;;;;;4996242;28;12522;-55
2022/01/09 09:47:57;;;;;;;;;11.75;11.75;10.20;99.90;;;;;;5014458;28;11560;-54
2022/01/09 09:50:27;;;;;;;;;10.50;10.00;10.20;99.90;;;;;;4998460;28;11659;-54
2022/01/09 09:52:59;;;;;;;;;11.50;11.00;10.20;99.90;;;;;;5013097;28;11534;-53
2022/01/09 09:55:31;;;;;;;;;12.50;12.50;10.10;99.90;;;;;;5009638;28;11699;-55
2022/01/09 09:58:01;;;;;;;;;12.25;11.00;10.00;99.90;;;;;;5013221;28;11501;-52
2022/01/09 10:00:33;;;;;;;;;12.00;10.75;10.10;99.90;;;;;;4994539;28;11695;-52
2022/01/09 10:03:04;;;;;;;;;12.00;12.00;10.00;99.90;;;;;;5015079;28;11515;-53
2022/01/09 10:05:39;;;;;;;;;13.25;11.50;10.00;99.90;;;;;;4994271;28;11562;-52
2022/01/09 10:08:15;;;;;;;;;19.75;19.75;10.00;99.90;;;;;;4995568;28;11659;-53
2022/01/09 10:10:46;;;;;;;;;18.00;17.50;9.90;99.90;;;;;;5012305;28;12359;-55
2022/01/09 10:13:19;;;;;;;;;18.00;16.50;9.90;99.90;;;;;;5014222;28;11580;-53
2022/01/09 10:16:01;;;;;;;;;13.00;13.00;9.90;99.90;;;;;;5012569;28;11667;-53
2022/01/09 10:18:43;;;;;;;;;14.75;14.75;9.90;99.90;;;;;;5014460;28;12180;-52
2022/01/09 10:21:18;;;;;;;;;16.00;16.00;9.90;99.90;;;;;;5013779;28;11506;-56
2022/01/09 10:24:07;;;;;;;;;17.00;17.00;9.90;99.90;;;;;;5014447;28;11631;-54
2022/01/09 10:26:41;;;;;;;;;16.75;16.75;9.90;99.90;;;;;;5010687;28;11562;-54
2022/01/09 10:29:14;;;;;;;;;17.25;17.25;9.80;99.90;;;;;;4996965;28;11561;-53
2022/01/09 10:31:46;;;;;;;;;10.75;10.75;9.80;99.90;;;;;;5014857;28;12960;-56
2022/01/09 10:34:19;;;;;;;;;14.75;14.75;9.80;99.90;;;;;;5013249;28;11503;-53
2022/01/09 10:36:53;;;;;;;;;12.75;12.75;9.80;99.90;;;;;;5013130;28;11550;-52
2022/01/09 10:39:26;;;;;;;;;15.00;14.00;9.80;99.90;;;;;;5018795;28;11643;-52
2022/01/09 10:42:03;;;;;;;;;13.50;11.75;9.70;99.90;;;;;;5014784;28;11528;-53
2022/01/09 10:44:38;;;;;;;;;6.25;6.25;9.70;99.90;;;;;;5017713;28;11561;-53
2022/01/09 10:47:18;;;;;;;;;13.00;13.00;9.70;99.90;;;;;;5014022;28;11484;-52
2022/01/09 10:49:49;;;;;;;;;9.25;9.00;9.70;99.90;;;;;;5014915;28;11501;-54
2022/01/09 10:52:27;;;;;;;;;11.75;10.25;9.60;99.90;;;;;;5016823;28;11543;-52
2022/01/09 10:55:09;;;;;;;;;14.75;14.75;9.60;99.90;;;;;;4994358;28;11686;-52
2022/01/09 10:57:46;;;;;;;;;14.50;13.25;9.60;99.90;;;;;;5017707;28;11539;-53
2022/01/09 11:00:17;;;;;;;;;13.50;13.50;9.60;99.90;;;;;;5016725;28;11508;-52
2022/01/09 11:02:48;;;;;;;;;12.00;12.00;9.60;99.90;;;;;;5014527;28;11652;-51
2022/01/09 11:05:18;;;;;;;;;12.75;12.75;9.60;99.90;;;;;;5002994;28;12692;-53
2022/01/09 11:07:50;;;;;;;;;12.00;12.00;9.60;99.90;;;;;;4994275;28;11515;-51
2022/01/09 11:10:22;;;;;;;;;12.75;11.00;9.50;99.90;;;;;;5017730;28;11512;-53
2022/01/09 11:13:00;;;;;;;;;9.50;9.50;9.50;99.90;;;;;;5013584;28;11618;-53
2022/01/09 11:15:36;;;;;;;;;9.50;9.50;9.50;99.90;;;;;;5016388;28;12319;-54
2022/01/09 11:18:05;;;;;;;;;12.25;12.25;9.50;99.90;;;;;;4996780;28;11551;-54
2022/01/09 11:20:36;;;;;;;;;10.00;10.00;9.50;99.90;;;;;;5001613;28;11683;-55
2022/01/09 11:23:08;;;;;;;;;8.00;8.00;9.40;99.90;;;;;;5012775;28;11704;-54
2022/01/09 11:25:44;;;;;;;;;10.50;10.50;9.40;99.90;;;;;;5002017;28;11516;-52
2022/01/09 11:28:25;;;;;;;;;10.25;10.25;9.40;99.90;;;;;;5012554;28;12705;-52
2022/01/09 11:31:10;;;;;;;;;10.00;10.00;9.40;99.90;;;;;;5016443;28;11539;-56
2022/01/09 11:34:00;;;;;;;;;10.00;10.00;9.30;99.90;;;;;;4998123;28;11485;-52
2022/01/09 11:37:03;;;;;;;;;10.00;9.00;9.30;99.90;;;;;;5017412;28;12756;-54
2022/01/09 11:39:37;;;;;;;;;8.00;8.00;9.30;99.90;;;;;;4976010;28;11633;-55
2022/01/09 11:42:15;;;;;;;;;7.00;7.00;9.30;99.90;;;;;;4995019;28;11493;-53
2022/01/09 11:44:54;;;;;;;;;9.50;9.50;9.20;99.90;;;;;;5013454;28;12323;-53
2022/01/09 11:47:25;;;;;;;;;10.75;10.75;9.20;99.90;;;;;;5000743;28;11592;-53
2022/01/09 11:49:56;;;;;;;;;8.25;8.25;9.10;99.90;;;;;;5014977;28;12257;-53
2022/01/09 11:52:29;;;;;;;;;11.00;11.00;9.10;99.90;;;;;;4999394;28;11520;-49
2022/01/09 11:55:05;;;;;;;;;13.25;11.00;9.00;99.90;;;;;;5012006;28;11542;-53
2022/01/09 11:57:46;;;;;;;;;11.50;11.50;9.00;99.90;;;;;;5016426;28;12177;-54
2022/01/09 12:00:35;;;;;;;;;8.00;8.00;9.00;99.90;;;;;;4666399;28;9999577;-53
2022/01/09 12:03:28;;;;;;;;;10.50;9.50;9.00;99.90;;;;;;4992632;28;8854;-53
2022/01/09 12:06:13;;;;;;;;;10.25;10.25;8.90;99.90;;;;;;5013376;28;12188;-53
2022/01/09 12:09:00;;;;;;;;;7.50;7.50;8.90;99.90;;;;;;5012070;28;11582;-53
2022/01/09 12:12:05;;;;;;;;;8.25;8.25;8.90;99.90;;;;;;5012767;28;11504;-54
2022/01/09 12:17:26;;;;;;;;;9.75;9.75;9.10;99.90;;;;;;5012357;28;12163;-52
2022/01/09 12:20:15;;;;;;;;;9.50;9.50;9.10;99.90;;;;;;5016223;28;11577;-53
2022/01/09 12:22:53;;;;;;;;;8.50;8.50;9.10;99.90;;;;;;5015672;28;11532;-54
2022/01/09 12:25:29;;;;;;;;;8.25;8.25;9.00;99.90;;;;;;5013567;28;12184;-53
2022/01/09 12:28:14;;;;;;;;;8.75;8.75;9.00;99.90;;;;;;5012873;28;11468;-53
2022/01/09 12:30:55;;;;;;;;;8.00;8.00;9.00;99.90;;;;;;5015325;28;11497;-54
2022/01/09 12:33:27;;;;;;;;;8.00;8.00;9.00;99.90;;;;;;5016028;28;12733;-52
2022/01/09 12:36:06;;;;;;;;;8.75;8.75;9.00;99.90;;;;;;5011104;28;11583;-52
2022/01/09 12:38:46;;;;;;;;;7.25;7.25;9.00;99.90;;;;;;5012986;28;12370;-53
2022/01/09 12:41:30;;;;;;;;;8.50;8.50;9.00;99.90;;;;;;4993194;28;11501;-54
2022/01/09 12:44:01;;;;;;;;;8.25;8.25;9.00;99.90;;;;;;4994583;28;11514;-53
2022/01/09 12:46:35;;;;;;;;;9.50;9.50;9.00;99.90;;;;;;5012261;28;11485;-53
2022/01/09 12:49:12;;;;;;;;;8.00;8.00;9.00;99.90;;;;;;5013138;28;11520;-55
2022/01/09 12:51:49;;;;;;;;;5.00;5.00;9.00;99.90;;;;;;5012880;28;11469;-55
2022/01/09 12:54:19;;;;;;;;;6.00;6.00;9.00;99.90;;;;;;5013496;28;11622;-53
2022/01/09 12:56:51;;;;;;;;;5.00;5.00;9.00;99.90;;;;;;5012516;28;11501;-54
2022/01/09 12:59:24;;;;;;;;;6.25;6.25;9.00;99.90;;;;;;5013115;28;11515;-53
2022/01/09 13:01:58;;;;;;;;;7.00;7.00;9.00;99.90;;;;;;5014257;28;11568;-55
2022/01/09 13:04:35;;;;;;;;;5.00;5.00;8.90;99.90;;;;;;5016147;28;11477;-54
2022/01/09 13:07:06;;;;;;;;;5.00;5.00;8.90;99.90;;;;;;4979723;28;11508;-53
2022/01/09 13:09:35;;;;;;;;;5.00;5.00;8.90;99.90;;;;;;4991352;28;11506;-54